Time;durP1;ratioP1;P1;durP2;ratioP2;P2;SDS_P1;SDS_P2;PMS_P1;PMS_P2;Temp;Humidity;BMP_temperature;BMP_pressure;BME280_temperature;BME280_humidity;BME280_pressure;Samples;Min_cycle;Max_cycle;Signal;HPM_P1;HPM_P2
2022/04/29 00:00:16;;;;;;;19.98;8.15;;;6.30;99.90;;;;;;5039168;28;20514;-71
2022/04/29 00:02:42;;;;;;;18.92;6.78;;;6.30;99.90;;;;;;5054477;28;20053;-70
2022/04/29 00:05:08;;;;;;;14.85;7.57;;;6.20;99.90;;;;;;5055986;28;20033;-70
2022/04/29 00:07:38;;;;;;;16.70;7.38;;;6.20;99.90;;;;;;5056317;28;20124;-69
2022/04/29 00:10:08;;;;;;;14.32;6.90;;;6.20;99.90;;;;;;5038909;28;20053;-70
2022/04/29 00:12:35;;;;;;;18.60;7.10;;;6.20;99.90;;;;;;5056511;28;20361;-70
2022/04/29 00:15:01;;;;;;;19.25;8.25;;;6.20;99.90;;;;;;5056869;28;20174;-69
2022/04/29 00:17:27;;;;;;;14.27;7.35;;;6.20;99.90;;;;;;5056342;28;20037;-68
2022/04/29 00:19:52;;;;;;;17.92;7.72;;;6.10;99.90;;;;;;5056476;28;20041;-70
2022/04/29 00:22:18;;;;;;;19.75;8.18;;;6.10;99.90;;;;;;5056523;28;20504;-69
2022/04/29 00:24:44;;;;;;;19.08;7.55;;;6.10;99.90;;;;;;5038728;28;20041;-71
2022/04/29 00:27:10;;;;;;;13.48;7.03;;;6.10;99.90;;;;;;5056484;28;20048;-70
2022/04/29 00:29:35;;;;;;;11.45;6.72;;;6.10;99.90;;;;;;5038568;28;20514;-69
2022/04/29 00:32:01;;;;;;;15.07;7.32;;;6.10;99.90;;;;;;5056402;28;20045;-69
2022/04/29 00:34:26;;;;;;;14.93;7.32;;;6.10;99.90;;;;;;5056146;28;20461;-70
2022/04/29 00:36:52;;;;;;;11.48;7.00;;;6.00;99.90;;;;;;5056337;28;20037;-70
2022/04/29 00:39:17;;;;;;;18.55;7.30;;;6.00;99.90;;;;;;5056390;28;20037;-70
2022/04/29 00:41:45;;;;;;;19.27;7.60;;;6.00;99.90;;;;;;5038311;28;20391;-70
2022/04/29 00:44:11;;;;;;;16.20;7.15;;;6.10;99.90;;;;;;5056343;28;20084;-70
2022/04/29 00:46:39;;;;;;;17.52;6.82;;;5.90;99.90;;;;;;5056221;28;20085;-69
2022/04/29 00:49:07;;;;;;;16.17;7.35;;;5.80;99.90;;;;;;5055473;28;20113;-69
2022/04/29 00:51:33;;;;;;;11.63;7.10;;;5.90;99.90;;;;;;5055861;28;20045;-69
2022/04/29 00:54:02;;;;;;;20.27;7.03;;;5.80;99.90;;;;;;5054907;28;20503;-69
2022/04/29 00:56:29;;;;;;;11.70;6.85;;;5.90;99.90;;;;;;5056045;28;20072;-69
2022/04/29 00:59:04;;;;;;;20.00;7.68;;;5.80;99.90;;;;;;5055552;28;20350;-70
2022/04/29 01:01:33;;;;;;;16.58;7.60;;;5.70;99.90;;;;;;5038440;28;20057;-71
2022/04/29 01:04:02;;;;;;;14.45;7.30;;;5.70;99.90;;;;;;5038038;28;20063;-70
2022/04/29 01:06:27;;;;;;;14.10;6.93;;;5.70;99.90;;;;;;5038617;28;20045;-70
2022/04/29 01:08:53;;;;;;;11.70;7.07;;;5.70;99.90;;;;;;5055751;28;20400;-69
2022/04/29 01:11:25;;;;;;;13.45;7.53;;;5.60;99.90;;;;;;5055335;28;20106;-70
2022/04/29 01:13:52;;;;;;;15.32;6.82;;;5.60;99.90;;;;;;5021514;28;20076;-69
2022/04/29 01:16:19;;;;;;;14.68;7.88;;;5.50;99.90;;;;;;5055658;28;20111;-70
2022/04/29 01:18:51;;;;;;;13.60;6.60;;;5.50;99.90;;;;;;5055296;28;20054;-69
2022/04/29 01:21:17;;;;;;;13.75;6.95;;;5.40;99.90;;;;;;5055175;28;20480;-70
2022/04/29 01:23:43;;;;;;;10.70;6.95;;;5.40;99.90;;;;;;5055352;28;20103;-70
2022/04/29 01:26:10;;;;;;;10.82;6.80;;;5.60;99.90;;;;;;5020170;28;20381;-69
2022/04/29 01:28:36;;;;;;;13.55;7.10;;;5.30;99.90;;;;;;5055136;28;20423;-70
2022/04/29 01:31:03;;;;;;;15.40;8.32;;;5.20;99.90;;;;;;5055162;28;20041;-69
2022/04/29 01:33:30;;;;;;;16.58;7.40;;;5.20;99.90;;;;;;5054637;28;20048;-68
2022/04/29 01:35:55;;;;;;;13.85;7.38;;;5.20;99.90;;;;;;5055038;28;20113;-70
2022/04/29 01:38:22;;;;;;;11.30;6.85;;;5.20;99.90;;;;;;5054990;28;20050;-70
2022/04/29 01:40:48;;;;;;;13.45;5.80;;;5.20;99.90;;;;;;5038076;28;20146;-69
2022/04/29 01:43:13;;;;;;;13.35;7.38;;;5.20;99.90;;;;;;5054619;28;20491;-70
2022/04/29 01:45:39;;;;;;;14.40;7.15;;;5.10;99.90;;;;;;5055724;28;20132;-69
2022/04/29 01:48:05;;;;;;;13.70;7.50;;;5.10;99.90;;;;;;5055040;28;20464;-69
2022/04/29 01:50:30;;;;;;;13.45;7.30;;;5.10;99.90;;;;;;5051257;28;20060;-70
2022/04/29 01:52:56;;;;;;;12.95;7.60;;;5.10;99.90;;;;;;5054647;28;20037;-70
2022/04/29 01:55:22;;;;;;;18.70;7.43;;;5.10;99.90;;;;;;5037681;28;20060;-70
2022/04/29 01:57:52;;;;;;;14.13;7.30;;;5.10;99.90;;;;;;5055094;28;20041;-70
2022/04/29 02:00:18;;;;;;;13.70;7.60;;;5.10;99.90;;;;;;5055016;28;20111;-69
2022/04/29 02:02:45;;;;;;;16.45;7.57;;;5.10;99.90;;;;;;5036813;28;20477;-70
2022/04/29 02:05:11;;;;;;;13.57;7.60;;;5.10;99.90;;;;;;5037190;28;20098;-69
2022/04/29 02:07:36;;;;;;;12.75;6.40;;;5.10;99.90;;;;;;5058899;28;20041;-68
2022/04/29 02:10:03;;;;;;;14.88;7.55;;;5.10;99.90;;;;;;5059129;28;20119;-69
2022/04/29 02:12:28;;;;;;;18.35;7.72;;;5.00;99.90;;;;;;5058750;28;20445;-70
2022/04/29 02:14:54;;;;;;;13.90;7.00;;;5.00;99.90;;;;;;5058853;28;20049;-68
2022/04/29 02:17:19;;;;;;;13.77;6.82;;;5.00;99.90;;;;;;5041270;28;20045;-70
2022/04/29 02:19:45;;;;;;;13.65;7.72;;;5.00;99.90;;;;;;5058683;28;20052;-69
2022/04/29 02:22:10;;;;;;;16.25;7.70;;;5.00;99.90;;;;;;5058519;28;20179;-69
2022/04/29 02:24:37;;;;;;;12.98;7.93;;;5.00;99.90;;;;;;5058865;28;20045;-69
2022/04/29 02:27:04;;;;;;;18.02;7.63;;;5.00;99.90;;;;;;5041414;28;20045;-69
2022/04/29 02:29:30;;;;;;;14.82;7.22;;;5.00;99.90;;;;;;5058488;28;20137;-70
2022/04/29 02:31:57;;;;;;;12.63;7.40;;;4.90;99.90;;;;;;5057951;28;20041;-68
2022/04/29 02:34:23;;;;;;;12.07;7.00;;;4.90;99.90;;;;;;5058383;28;20045;-68
2022/04/29 02:36:49;;;;;;;15.63;7.00;;;4.90;99.90;;;;;;5058764;28;20053;-68
2022/04/29 02:39:15;;;;;;;15.23;7.55;;;4.90;99.90;;;;;;5041746;28;20088;-68
2022/04/29 02:41:41;;;;;;;16.60;7.55;;;4.90;99.90;;;;;;5041195;28;20079;-69
2022/04/29 02:44:06;;;;;;;14.93;8.13;;;4.90;99.90;;;;;;5058128;28;20114;-69
2022/04/29 02:46:33;;;;;;;18.17;8.25;;;5.00;99.90;;;;;;5058482;28;20103;-69
2022/04/29 02:48:59;;;;;;;20.00;8.20;;;5.00;99.90;;;;;;5058066;28;20041;-68
2022/04/29 02:51:24;;;;;;;14.25;7.88;;;5.00;99.90;;;;;;5040570;28;20045;-68
2022/04/29 02:53:51;;;;;;;14.63;8.30;;;5.00;99.90;;;;;;5057980;28;20103;-70
2022/04/29 02:56:17;;;;;;;12.70;7.43;;;5.00;99.90;;;;;;5058251;28;20053;-68
2022/04/29 02:58:43;;;;;;;12.98;7.88;;;5.00;99.90;;;;;;5058171;28;20037;-68
2022/04/29 03:01:09;;;;;;;16.13;7.43;;;5.00;99.90;;;;;;5040138;28;20118;-68
2022/04/29 03:03:34;;;;;;;15.20;7.50;;;4.90;99.90;;;;;;5056893;28;20048;-69
2022/04/29 03:06:00;;;;;;;15.68;7.93;;;4.90;99.90;;;;;;5057997;28;20480;-70
2022/04/29 03:08:25;;;;;;;16.58;8.85;;;4.90;99.90;;;;;;5058035;28;20472;-69
2022/04/29 03:10:51;;;;;;;12.25;8.20;;;5.00;99.90;;;;;;5057807;28;20091;-68
2022/04/29 03:13:17;;;;;;;14.25;7.55;;;5.00;99.90;;;;;;5057658;28;20076;-68
2022/04/29 03:15:43;;;;;;;20.15;8.13;;;5.00;99.90;;;;;;5057980;28;20053;-69
2022/04/29 03:18:21;;;;;;;10.23;7.25;;;5.00;99.90;;;;;;5056587;28;20055;-69
2022/04/29 03:20:53;;;;;;;12.95;7.75;;;4.90;99.90;;;;;;5040321;28;20053;-68
2022/04/29 03:23:18;;;;;;;16.75;8.00;;;4.90;99.90;;;;;;5040607;28;20114;-68
2022/04/29 03:25:44;;;;;;;13.55;8.45;;;4.90;99.90;;;;;;5057548;28;20453;-70
2022/04/29 03:28:09;;;;;;;19.83;8.68;;;4.80;99.90;;;;;;5057611;28;20049;-70
2022/04/29 03:30:36;;;;;;;10.63;7.18;;;4.80;99.90;;;;;;5056860;28;20057;-69
2022/04/29 03:33:04;;;;;;;17.30;8.27;;;4.80;99.90;;;;;;5057109;28;20053;-68
2022/04/29 03:35:30;;;;;;;15.23;7.53;;;4.70;99.90;;;;;;5056964;28;20099;-69
2022/04/29 03:37:56;;;;;;;14.15;7.95;;;4.60;99.90;;;;;;5054504;28;20040;-69
2022/04/29 03:40:23;;;;;;;11.27;7.40;;;4.60;99.90;;;;;;5057588;28;20519;-69
2022/04/29 03:42:51;;;;;;;14.60;8.15;;;4.60;99.90;;;;;;5057313;28;20067;-69
2022/04/29 03:45:17;;;;;;;14.57;8.43;;;4.50;99.90;;;;;;5057357;28;20080;-68
2022/04/29 03:47:43;;;;;;;11.35;7.97;;;4.50;99.90;;;;;;5057461;28;20041;-68
2022/04/29 03:50:10;;;;;;;13.07;7.90;;;4.80;99.90;;;;;;5057345;28;20190;-68
2022/04/29 03:52:45;;;;;;;15.60;7.40;;;4.40;99.90;;;;;;5056916;28;20064;-69
2022/04/29 03:55:11;;;;;;;12.25;7.97;;;4.40;99.90;;;;;;5039761;28;20118;-69
2022/04/29 03:57:37;;;;;;;17.27;8.38;;;4.40;99.90;;;;;;5056880;28;20037;-68
2022/04/29 04:00:04;;;;;;;16.40;8.32;;;4.40;99.90;;;;;;5056950;28;20516;-68
2022/04/29 04:02:29;;;;;;;17.13;8.85;;;4.40;99.90;;;;;;5055893;28;20080;-69
2022/04/29 04:04:55;;;;;;;12.23;8.32;;;4.40;99.90;;;;;;5022431;28;20473;-69
2022/04/29 04:07:22;;;;;;;15.60;8.60;;;4.30;99.90;;;;;;5056863;28;20103;-70
2022/04/29 04:09:47;;;;;;;16.33;9.27;;;4.30;99.90;;;;;;5056803;28;20071;-69
2022/04/29 04:12:13;;;;;;;19.02;8.93;;;4.30;99.90;;;;;;5056830;28;20033;-70
2022/04/29 04:14:38;;;;;;;16.90;7.97;;;4.30;99.90;;;;;;5039156;28;20436;-68
2022/04/29 04:17:04;;;;;;;19.92;8.82;;;4.30;99.90;;;;;;5056379;28;20070;-68
2022/04/29 04:19:30;;;;;;;16.80;8.68;;;4.30;99.90;;;;;;5056284;28;20051;-69
2022/04/29 04:21:55;;;;;;;18.60;8.45;;;4.40;99.90;;;;;;5038796;28;20045;-71
2022/04/29 04:24:21;;;;;;;14.15;8.23;;;4.50;99.90;;;;;;5056103;28;20420;-69
2022/04/29 04:26:47;;;;;;;12.70;8.82;;;4.50;99.90;;;;;;5057768;28;20442;-69
2022/04/29 04:29:12;;;;;;;13.48;8.52;;;4.60;99.90;;;;;;5058519;28;20351;-69
2022/04/29 04:31:38;;;;;;;17.63;9.00;;;4.60;99.90;;;;;;5043108;28;20090;-70
2022/04/29 04:34:49;;;;;;;14.88;8.95;;;4.70;99.90;;;;;;5034923;28;20095;-69
2022/04/29 04:36:52;;;;;;;14.73;8.52;;;4.80;99.90;;;;;;5035297;28;20484;-68
2022/04/29 04:39:18;;;;;;;13.93;9.60;;;4.90;99.90;;;;;;5036395;28;20630;-68
2022/04/29 04:41:44;;;;;;;13.85;9.40;;;5.00;99.90;;;;;;5046914;28;20110;-69
2022/04/29 04:44:09;;;;;;;22.58;10.10;;;5.10;99.90;;;;;;5002356;28;20046;-69
2022/04/29 04:46:36;;;;;;;14.02;9.27;;;5.20;99.90;;;;;;5035924;28;20111;-70
2022/04/29 04:49:02;;;;;;;14.68;8.63;;;5.20;99.90;;;;;;5036156;28;20401;-68
2022/04/29 04:51:29;;;;;;;15.60;9.38;;;5.30;99.90;;;;;;5045433;28;20070;-69
2022/04/29 04:53:54;;;;;;;13.70;8.93;;;5.40;99.90;;;;;;5056962;28;20045;-68
2022/04/29 04:56:20;;;;;;;15.65;9.13;;;5.40;99.90;;;;;;5039224;28;20122;-70
2022/04/29 04:58:45;;;;;;;17.85;9.43;;;5.50;99.90;;;;;;5055833;28;20040;-70
2022/04/29 05:01:11;;;;;;;15.25;9.05;;;5.60;99.90;;;;;;5055705;28;20053;-66
2022/04/29 05:03:37;;;;;;;15.30;9.15;;;5.70;99.90;;;;;;5055106;28;20068;-68
2022/04/29 05:06:03;;;;;;;13.30;9.45;;;5.80;99.90;;;;;;5038214;28;20041;-69
2022/04/29 05:08:28;;;;;;;17.73;9.35;;;5.90;99.90;;;;;;5052318;28;20045;-68
2022/04/29 05:10:54;;;;;;;16.48;9.45;;;6.10;99.90;;;;;;5017811;28;20081;-69
2022/04/29 05:13:19;;;;;;;15.70;8.77;;;6.20;99.90;;;;;;5035186;28;20183;-69
2022/04/29 05:15:45;;;;;;;19.40;9.32;;;6.40;99.90;;;;;;5035155;28;20049;-68
2022/04/29 05:18:10;;;;;;;14.43;9.32;;;6.50;99.90;;;;;;5035154;28;20124;-68
2022/04/29 05:20:36;;;;;;;15.27;8.95;;;6.70;99.90;;;;;;5035707;28;20049;-69
2022/04/29 05:23:01;;;;;;;13.93;9.20;;;6.90;99.90;;;;;;5035074;28;20045;-68
2022/04/29 05:25:27;;;;;;;17.25;9.10;;;7.10;99.90;;;;;;5032971;28;20053;-71
2022/04/29 05:27:53;;;;;;;15.98;8.25;;;7.30;99.90;;;;;;5050295;28;20048;-68
2022/04/29 05:30:19;;;;;;;14.38;8.27;;;7.50;99.90;;;;;;5054876;28;20047;-69
2022/04/29 05:32:45;;;;;;;14.85;8.63;;;7.60;99.90;;;;;;5037606;28;20120;-72
2022/04/29 05:35:11;;;;;;;11.80;8.05;;;7.80;99.90;;;;;;5054952;28;20053;-71
2022/04/29 05:37:37;;;;;;;15.38;7.65;;;8.00;99.90;;;;;;5055293;28;20437;-71
2022/04/29 05:42:47;;;;;;;17.00;7.15;;;8.30;99.90;;;;;;5054786;28;20049;-68
2022/04/29 05:45:16;;;;;;;17.33;6.97;;;8.40;99.90;;;;;;5055121;28;20037;-70
2022/04/29 05:47:41;;;;;;;15.55;7.10;;;8.50;99.90;;;;;;5055291;28;20327;-70
2022/04/29 05:50:07;;;;;;;15.85;6.90;;;8.60;99.90;;;;;;5054587;28;20059;-69
2022/04/29 05:52:33;;;;;;;14.57;7.10;;;8.60;99.90;;;;;;5054070;28;20051;-67
2022/04/29 05:54:58;;;;;;;15.13;6.90;;;8.60;99.90;;;;;;5051627;28;20077;-69
2022/04/29 05:57:24;;;;;;;11.88;6.50;;;8.60;99.90;;;;;;5054456;28;20144;-69
2022/04/29 05:59:50;;;;;;;17.83;6.35;;;8.60;99.90;;;;;;5036810;28;20084;-69
2022/04/29 06:02:15;;;;;;;8.82;5.40;;;8.70;99.90;;;;;;5054951;28;20483;-68
2022/04/29 06:04:41;;;;;;;8.13;5.32;;;8.70;99.90;;;;;;5054422;28;20107;-69
2022/04/29 06:07:07;;;;;;;17.92;5.63;;;8.70;99.90;;;;;;5054375;28;20114;-68
2022/04/29 06:09:32;;;;;;;9.55;5.45;;;8.70;99.90;;;;;;5037092;28;20052;-69
2022/04/29 06:11:58;;;;;;;11.60;6.15;;;8.70;99.90;;;;;;5054074;28;20132;-69
2022/04/29 06:14:24;;;;;;;14.65;6.35;;;8.80;99.90;;;;;;5053649;28;20049;-70
2022/04/29 06:16:49;;;;;;;13.68;6.28;;;8.70;99.90;;;;;;5053799;28;20492;-69
2022/04/29 06:19:15;;;;;;;9.00;5.90;;;8.80;99.90;;;;;;5054583;28;20049;-70
2022/04/29 06:21:40;;;;;;;13.57;6.50;;;8.90;99.90;;;;;;5054000;28;20041;-70
2022/04/29 06:24:07;;;;;;;11.02;5.80;;;8.90;99.90;;;;;;5054056;28;20045;-69
2022/04/29 06:26:32;;;;;;;15.25;6.00;;;9.00;99.90;;;;;;5050899;28;20048;-67
2022/04/29 06:28:58;;;;;;;10.82;5.95;;;9.10;99.90;;;;;;5053731;28;20071;-71
2022/04/29 06:31:23;;;;;;;11.88;6.10;;;9.10;99.90;;;;;;5036888;28;20045;-70
2022/04/29 06:33:49;;;;;;;11.52;5.85;;;9.20;99.90;;;;;;5054763;28;20048;-70
2022/04/29 06:36:15;;;;;;;14.68;5.25;;;9.20;99.90;;;;;;5053450;28;20072;-71
2022/04/29 06:38:40;;;;;;;14.68;5.72;;;9.20;99.90;;;;;;5034852;28;20394;-70
2022/04/29 06:41:06;;;;;;;15.05;6.60;;;9.20;99.90;;;;;;5016277;28;20092;-70
2022/04/29 06:43:32;;;;;;;13.77;5.40;;;9.30;99.90;;;;;;5044400;28;20107;-71
2022/04/29 06:45:57;;;;;;;9.10;4.88;;;9.30;99.90;;;;;;5054925;28;20041;-70
2022/04/29 06:48:23;;;;;;;10.32;4.75;;;9.40;99.90;;;;;;5053882;28;20056;-69
2022/04/29 06:50:49;;;;;;;11.45;4.65;;;9.40;99.90;;;;;;5053974;28;20452;-70
2022/04/29 06:53:14;;;;;;;9.88;4.97;;;9.40;99.90;;;;;;5055909;28;20056;-67
2022/04/29 06:55:40;;;;;;;7.00;3.80;;;9.40;99.90;;;;;;5057227;28;20119;-66
2022/04/29 06:58:06;;;;;;;9.10;4.30;;;9.40;99.90;;;;;;5057778;28;20099;-71
2022/04/29 07:00:32;;;;;;;9.63;4.20;;;9.30;99.90;;;;;;5057086;28;20053;-70
2022/04/29 07:03:01;;;;;;;11.35;3.83;;;9.40;99.90;;;;;;5057431;28;20422;-70
2022/04/29 07:05:28;;;;;;;7.43;3.88;;;9.50;99.90;;;;;;5057297;28;20066;-70
2022/04/29 07:07:53;;;;;;;11.65;3.97;;;9.60;99.90;;;;;;5057787;28;20370;-70
2022/04/29 07:10:19;;;;;;;11.70;4.20;;;9.70;99.90;;;;;;5057994;28;20037;-70
2022/04/29 07:12:48;;;;;;;10.88;3.70;;;9.80;99.90;;;;;;5056274;28;20445;-70
2022/04/29 07:15:14;;;;;;;10.38;3.63;;;9.90;99.90;;;;;;5057976;28;20063;-70
2022/04/29 07:17:41;;;;;;;17.63;4.47;;;9.90;99.90;;;;;;5057711;28;20373;-71
2022/04/29 07:20:08;;;;;;;10.65;4.20;;;9.90;99.90;;;;;;5057472;28;20052;-69
2022/04/29 07:22:38;;;;;;;8.23;4.30;;;10.00;99.90;;;;;;5039163;28;20381;-70
2022/04/29 07:25:07;;;;;;;6.78;3.55;;;9.90;99.90;;;;;;5057103;28;20045;-70
2022/04/29 07:27:33;;;;;;;7.65;3.85;;;10.00;99.90;;;;;;5056865;28;20099;-69
2022/04/29 07:30:00;;;;;;;8.27;3.95;;;9.90;99.90;;;;;;5057515;28;20053;-69
2022/04/29 07:32:26;;;;;;;7.28;3.90;;;10.10;99.90;;;;;;5057115;28;20041;-70
2022/04/29 07:43:10;;;;;;;9.52;3.65;;;10.00;99.90;;;;;;5056321;28;20393;-71
2022/04/29 07:45:38;;;;;;;6.75;3.60;;;10.20;99.90;;;;;;5053041;28;20331;-70
2022/04/29 07:48:05;;;;;;;7.10;3.42;;;10.20;99.90;;;;;;5056707;28;20128;-69
2022/04/29 07:50:31;;;;;;;7.90;3.47;;;10.30;99.90;;;;;;5054006;28;20109;-70
2022/04/29 07:52:58;;;;;;;8.00;3.10;;;10.40;99.90;;;;;;5056881;28;20127;-69
2022/04/29 07:55:24;;;;;;;10.02;2.95;;;10.50;99.90;;;;;;5056911;28;20131;-70
2022/04/29 07:57:49;;;;;;;8.88;3.30;;;10.60;99.90;;;;;;5056353;28;20454;-70
2022/04/29 08:00:15;;;;;;;14.40;3.08;;;10.60;99.90;;;;;;5056510;28;20056;-71
2022/04/29 08:02:41;;;;;;;9.45;3.13;;;10.60;99.90;;;;;;5057040;28;20128;-72
2022/04/29 08:05:07;;;;;;;6.90;3.00;;;10.60;99.90;;;;;;5056530;28;20052;-70
2022/04/29 08:07:33;;;;;;;8.88;3.20;;;10.50;99.90;;;;;;5038392;28;20544;-70
2022/04/29 08:09:59;;;;;;;10.20;3.28;;;10.50;99.90;;;;;;5056270;28;20060;-71
2022/04/29 08:12:26;;;;;;;7.05;3.05;;;10.70;99.90;;;;;;5056591;28;20385;-70
2022/04/29 08:14:53;;;;;;;11.90;3.08;;;10.80;99.90;;;;;;5038599;28;20412;-72
2022/04/29 08:17:19;;;;;;;4.85;2.90;;;10.70;99.90;;;;;;5056373;28;20406;-71
2022/04/29 08:19:45;;;;;;;6.88;3.00;;;10.80;99.90;;;;;;5056657;28;20356;-71
2022/04/29 08:22:11;;;;;;;8.80;2.65;;;10.80;99.90;;;;;;5056070;28;20091;-70
2022/04/29 08:24:37;;;;;;;7.18;2.92;;;10.80;99.90;;;;;;5038959;28;20472;-72
2022/04/29 08:27:03;;;;;;;6.47;2.60;;;10.80;99.90;;;;;;5055813;28;20045;-70
2022/04/29 08:29:29;;;;;;;5.57;2.75;;;10.90;99.90;;;;;;5056510;28;20051;-71
2022/04/29 08:31:54;;;;;;;8.52;2.45;;;11.00;99.90;;;;;;5056117;28;20400;-67
2022/04/29 08:34:20;;;;;;;7.07;2.75;;;11.20;99.90;;;;;;5037976;28;20057;-70
2022/04/29 08:36:45;;;;;;;5.75;2.28;;;11.50;99.90;;;;;;5056226;28;20040;-71
2022/04/29 08:39:11;;;;;;;8.50;2.38;;;11.60;99.90;;;;;;5037844;28;20386;-69
2022/04/29 08:41:38;;;;;;;6.22;2.38;;;11.80;99.90;;;;;;5055682;28;20094;-69
2022/04/29 08:44:08;;;;;;;6.63;2.80;;;11.80;99.90;;;;;;5055723;28;20071;-69
2022/04/29 08:46:34;;;;;;;8.38;2.65;;;11.70;99.90;;;;;;5055797;28;20051;-68
2022/04/29 08:49:01;;;;;;;7.25;2.45;;;11.70;99.90;;;;;;5055323;28;20120;-72
2022/04/29 08:51:27;;;;;;;7.13;2.20;;;11.70;99.90;;;;;;5055234;28;20049;-71
2022/04/29 08:53:53;;;;;;;7.43;2.38;;;11.60;99.90;;;;;;5055066;28;20128;-70
2022/04/29 08:59:04;;;;;;;7.50;2.42;;;11.90;99.90;;;;;;5032932;28;20447;-69
2022/04/29 09:01:30;;;;;;;7.97;3.00;;;11.90;99.90;;;;;;5015210;28;20489;-70
2022/04/29 09:03:56;;;;;;;5.32;2.13;;;11.70;99.90;;;;;;5016045;28;20046;-70
2022/04/29 09:06:22;;;;;;;6.22;2.08;;;11.50;99.90;;;;;;5012840;28;20072;-70
2022/04/29 09:08:49;;;;;;;5.88;2.20;;;11.50;99.90;;;;;;5020398;28;20050;-70
2022/04/29 09:11:23;;;;;;;5.40;1.90;;;11.50;99.90;;;;;;5027606;28;20513;-70
2022/04/29 09:13:49;;;;;;;6.03;2.20;;;11.50;99.90;;;;;;5031908;28;20366;-70
2022/04/29 09:16:15;;;;;;;6.85;1.90;;;11.50;99.90;;;;;;5034460;28;20052;-69
2022/04/29 09:18:46;;;;;;;9.68;2.38;;;11.50;99.90;;;;;;5018340;28;20045;-69
2022/04/29 09:21:16;;;;;;;7.75;2.30;;;11.40;99.90;;;;;;5035309;28;20076;-71
2022/04/29 09:23:43;;;;;;;5.78;2.33;;;11.30;99.90;;;;;;5035494;28;20046;-70
2022/04/29 09:26:39;;;;;;;7.45;2.10;;;11.40;99.90;;;;;;5017840;28;20095;-71
2022/04/29 09:29:15;;;;;;;5.55;2.20;;;11.40;99.90;;;;;;5034097;28;20227;-70
2022/04/29 09:31:53;;;;;;;6.97;2.40;;;11.30;99.90;;;;;;5035312;28;20059;-70
2022/04/29 09:34:19;;;;;;;6.32;2.60;;;11.30;99.90;;;;;;5018006;28;20089;-69
2022/04/29 09:36:45;;;;;;;7.18;2.53;;;11.30;99.90;;;;;;5035146;28;20061;-70
2022/04/29 09:39:26;;;;;;;5.28;2.60;;;11.20;99.90;;;;;;5034801;28;20103;-70
2022/04/29 09:41:57;;;;;;;7.57;3.03;;;11.20;99.90;;;;;;5034638;28;20441;-70
2022/04/29 09:44:26;;;;;;;7.35;2.75;;;11.20;99.90;;;;;;5034762;28;20049;-71
2022/04/29 09:46:52;;;;;;;11.20;2.92;;;11.00;99.90;;;;;;5035059;28;20049;-70
2022/04/29 09:49:19;;;;;;;7.40;3.05;;;11.00;99.90;;;;;;5034798;28;20465;-71
2022/04/29 09:51:52;;;;;;;8.23;3.30;;;11.10;99.90;;;;;;5035028;28;20049;-71
2022/04/29 09:54:25;;;;;;;16.75;3.22;;;11.10;99.90;;;;;;5034485;28;20045;-71
2022/04/29 09:57:14;;;;;;;7.68;3.20;;;11.10;99.90;;;;;;5034524;28;20064;-71
2022/04/29 09:59:53;;;;;;;7.82;3.35;;;11.10;99.90;;;;;;5042069;28;20140;-72
2022/04/29 10:02:21;;;;;;;9.93;2.92;;;11.20;99.90;;;;;;5054663;28;20057;-70
2022/04/29 10:04:49;;;;;;;7.70;3.60;;;11.50;99.90;;;;;;5054724;28;20053;-70
2022/04/29 10:07:17;;;;;;;5.68;2.60;;;11.60;99.90;;;;;;5054672;28;20048;-69
2022/04/29 10:09:48;;;;;;;7.93;3.05;;;11.70;99.90;;;;;;5054304;28;20517;-70
2022/04/29 10:12:18;;;;;;;8.05;2.75;;;11.80;99.90;;;;;;5036954;28;20045;-69
2022/04/29 10:14:46;;;;;;;6.80;3.05;;;12.00;99.90;;;;;;5037234;28;20407;-70
2022/04/29 10:23:09;;;;;;;6.13;3.15;;;12.00;99.90;;;;;;5039074;28;20060;-69
2022/04/29 10:25:39;;;;;;;7.55;2.65;;;12.20;99.90;;;;;;5054231;28;20045;-69
2022/04/29 10:28:07;;;;;;;7.13;2.95;;;12.30;99.90;;;;;;5023306;28;20044;-67
2022/04/29 10:30:37;;;;;;;6.07;2.92;;;12.30;99.90;;;;;;5058640;28;20095;-68
2022/04/29 10:33:10;;;;;;;8.15;3.17;;;12.20;99.90;;;;;;5058256;28;20556;-72
2022/04/29 10:35:53;;;;;;;7.47;3.28;;;12.40;99.90;;;;;;5058687;28;20033;-69
2022/04/29 10:38:34;;;;;;;7.93;3.93;;;12.70;99.90;;;;;;5040533;28;20131;-70
2022/04/29 10:41:20;;;;;;;6.10;3.50;;;12.70;99.90;;;;;;5040956;28;20124;-71
2022/04/29 10:43:50;;;;;;;5.47;3.47;;;12.40;99.90;;;;;;5058335;28;20063;-71
2022/04/29 10:46:31;;;;;;;6.82;3.90;;;12.40;99.90;;;;;;5058297;28;20047;-71
2022/04/29 10:48:57;;;;;;;7.53;3.70;;;12.50;99.90;;;;;;5046046;28;20037;-71
2022/04/29 10:51:28;;;;;;;9.57;3.90;;;12.30;99.90;;;;;;5037731;28;20079;-71
2022/04/29 10:53:57;;;;;;;7.85;4.10;;;12.20;99.90;;;;;;5037981;28;20458;-70
2022/04/29 10:56:28;;;;;;;11.15;4.43;;;11.90;99.90;;;;;;5038274;28;20508;-72
2022/04/29 10:59:10;;;;;;;9.43;4.20;;;11.70;99.90;;;;;;5045858;28;20116;-69
2022/04/29 11:01:37;;;;;;;6.28;3.50;;;11.70;99.90;;;;;;5040919;28;20118;-69
2022/04/29 11:04:07;;;;;;;6.65;3.60;;;11.80;99.90;;;;;;5057814;28;20471;-70
2022/04/29 11:06:37;;;;;;;9.00;3.75;;;11.90;99.90;;;;;;5057444;28;20052;-70
2022/04/29 11:09:24;;;;;;;7.07;3.80;;;11.80;99.90;;;;;;5039710;28;20044;-70
2022/04/29 11:11:49;;;;;;;6.13;3.85;;;11.80;99.90;;;;;;5040185;28;20044;-71
2022/04/29 11:14:16;;;;;;;10.40;4.65;;;11.70;99.90;;;;;;5057474;28;20041;-70
2022/04/29 11:17:11;;;;;;;8.82;4.20;;;11.60;99.90;;;;;;5057538;28;20048;-71
2022/04/29 11:19:45;;;;;;;6.65;3.67;;;11.60;99.90;;;;;;5048193;28;20068;-69
2022/04/29 11:25:04;;;;;;;8.18;3.72;;;11.80;99.90;;;;;;5057074;28;20057;-70
2022/04/29 11:27:34;;;;;;;8.35;3.38;;;11.70;99.90;;;;;;5039934;28;20144;-70
2022/04/29 11:30:02;;;;;;;8.73;4.20;;;11.70;99.90;;;;;;5057167;28;20069;-71
2022/04/29 11:32:28;;;;;;;9.18;3.90;;;11.70;99.90;;;;;;5057149;28;20041;-71
2022/04/29 11:35:00;;;;;;;9.90;4.00;;;11.80;99.90;;;;;;5053827;28;20060;-70
2022/04/29 11:37:28;;;;;;;9.13;4.15;;;11.70;99.90;;;;;;5057708;28;20077;-70
2022/04/29 11:40:00;;;;;;;9.98;3.78;;;11.80;99.90;;;;;;5056495;28;20033;-71
2022/04/29 11:42:26;;;;;;;6.60;3.30;;;11.70;99.90;;;;;;5025618;28;20045;-71
2022/04/29 11:44:52;;;;;;;6.68;3.38;;;11.70;99.90;;;;;;5058981;28;20271;-71
2022/04/29 11:47:24;;;;;;;8.35;3.47;;;11.70;99.90;;;;;;5056992;28;20099;-72
2022/04/29 11:49:51;;;;;;;10.88;3.80;;;11.80;99.90;;;;;;5055997;28;20091;-73
2022/04/29 11:52:20;;;;;;;5.63;3.05;;;11.90;99.90;;;;;;5038883;28;20049;-72
2022/04/29 11:54:54;;;;;;;7.68;3.63;;;12.10;99.90;;;;;;5039233;28;20041;-71
2022/04/29 11:57:21;;;;;;;7.40;3.10;;;12.00;99.90;;;;;;5056779;28;20074;-70
2022/04/29 11:59:47;;;;;;;6.68;3.33;;;12.00;99.90;;;;;;5056190;28;20143;-70
2022/04/29 12:02:17;;;;;;;10.73;3.55;;;12.10;99.90;;;;;;5056561;28;20206;-72
2022/04/29 12:04:53;;;;;;;5.70;3.00;;;12.20;99.90;;;;;;5056450;28;20045;-71
2022/04/29 12:07:18;;;;;;;7.63;3.17;;;12.30;99.90;;;;;;5039191;28;20130;-72
2022/04/29 12:09:44;;;;;;;7.00;2.92;;;12.50;99.90;;;;;;5054040;28;21366;-71
2022/04/29 12:12:30;;;;;;;7.20;3.20;;;12.60;99.90;;;;;;5035973;28;20125;-72
2022/04/29 12:14:59;;;;;;;9.88;3.60;;;12.60;99.90;;;;;;5036531;28;20041;-71
2022/04/29 12:17:39;;;;;;;10.55;3.20;;;12.70;99.90;;;;;;5036477;28;20430;-71
2022/04/29 12:20:07;;;;;;;7.00;2.70;;;12.70;99.90;;;;;;5035969;28;20359;-71
2022/04/29 12:22:38;;;;;;;6.75;3.17;;;12.70;99.90;;;;;;5036261;28;20087;-71
2022/04/29 12:25:26;;;;;;;8.35;3.00;;;12.70;99.90;;;;;;5036434;28;20041;-70
2022/04/29 12:28:21;;;;;;;5.38;2.63;;;12.70;99.90;;;;;;5036406;28;20464;-69
2022/04/29 12:36:31;;;;;;;7.53;2.88;;;12.70;99.90;;;;;;5037331;28;20053;-71
2022/04/29 12:39:04;;;;;;;8.45;3.25;;;12.60;99.90;;;;;;5051885;28;20049;-69
2022/04/29 12:41:30;;;;;;;8.75;3.13;;;12.40;99.90;;;;;;5056216;28;20084;-72
2022/04/29 12:44:08;;;;;;;6.45;2.65;;;12.40;99.90;;;;;;5007833;28;20085;-72
2022/04/29 12:46:35;;;;;;;8.93;3.03;;;12.50;99.90;;;;;;5045003;28;20071;-70
2022/04/29 12:49:00;;;;;;;7.85;2.70;;;12.70;99.90;;;;;;5048997;28;20052;-71
2022/04/29 12:51:35;;;;;;;8.32;2.70;;;12.70;99.90;;;;;;5051918;28;20049;-72
2022/04/29 12:54:03;;;;;;;5.97;2.78;;;12.90;99.90;;;;;;5041805;28;20053;-71
2022/04/29 12:56:34;;;;;;;10.32;2.97;;;13.00;99.90;;;;;;5056122;28;20045;-70
2022/04/29 12:59:02;;;;;;;5.70;2.65;;;13.10;99.90;;;;;;5037675;28;20158;-71
2022/04/29 13:01:39;;;;;;;4.53;2.55;;;13.20;99.90;;;;;;5055633;28;20060;-71
2022/04/29 13:04:06;;;;;;;5.97;2.80;;;13.20;99.90;;;;;;5003635;28;20199;-71
2022/04/29 13:06:32;;;;;;;6.70;3.03;;;13.20;99.90;;;;;;5044471;28;20124;-70
2022/04/29 13:08:59;;;;;;;5.07;2.60;;;12.90;99.90;;;;;;5035141;28;20056;-70
2022/04/29 13:11:25;;;;;;;5.45;2.78;;;12.90;99.90;;;;;;5035564;28;20148;-71
2022/04/29 13:13:51;;;;;;;6.68;3.15;;;12.80;99.90;;;;;;5034190;28;20091;-71
2022/04/29 13:16:19;;;;;;;6.13;2.90;;;12.80;99.90;;;;;;5035301;28;20034;-73
2022/04/29 13:18:45;;;;;;;5.30;2.50;;;12.80;99.90;;;;;;5041741;28;20388;-70